sensor_id;sensor_type;location;lat;lon;timestamp;P1;durP1;ratioP1;P2;durP2;ratioP2
18724;SDS011;65581;52.130;5.584;2022-12-04T00:02:08;57.63;;;19.47;;
18724;SDS011;65581;52.130;5.584;2022-12-04T00:04:35;48.20;;;17.83;;
18724;SDS011;65581;52.130;5.584;2022-12-04T00:07:02;54.70;;;19.40;;
18724;SDS011;65581;52.130;5.584;2022-12-04T00:09:28;57.60;;;19.53;;
18724;SDS011;65581;52.130;5.584;2022-12-04T00:11:55;52.03;;;19.53;;
18724;SDS011;65581;52.130;5.584;2022-12-04T00:14:22;57.03;;;20.03;;
18724;SDS011;65581;52.130;5.584;2022-12-04T00:16:50;57.50;;;19.43;;
18724;SDS011;65581;52.130;5.584;2022-12-04T00:19:17;54.43;;;19.33;;
18724;SDS011;65581;52.130;5.584;2022-12-04T00:21:44;51.60;;;18.83;;
18724;SDS011;65581;52.130;5.584;2022-12-04T00:24:10;59.30;;;20.37;;
18724;SDS011;65581;52.130;5.584;2022-12-04T00:26:37;53.93;;;19.30;;
18724;SDS011;65581;52.130;5.584;2022-12-04T00:29:04;50.07;;;18.93;;
18724;SDS011;65581;52.130;5.584;2022-12-04T00:31:31;54.77;;;19.57;;
18724;SDS011;65581;52.130;5.584;2022-12-04T00:33:59;52.47;;;19.03;;
18724;SDS011;65581;52.130;5.584;2022-12-04T00:36:26;57.83;;;19.80;;
18724;SDS011;65581;52.130;5.584;2022-12-04T00:38:54;55.40;;;19.00;;
18724;SDS011;65581;52.130;5.584;2022-12-04T00:41:22;55.83;;;19.47;;
18724;SDS011;65581;52.130;5.584;2022-12-04T00:43:50;55.53;;;19.73;;
18724;SDS011;65581;52.130;5.584;2022-12-04T00:46:17;53.43;;;19.03;;
18724;SDS011;65581;52.130;5.584;2022-12-04T00:48:44;54.63;;;19.13;;
18724;SDS011;65581;52.130;5.584;2022-12-04T00:51:14;51.73;;;18.93;;
18724;SDS011;65581;52.130;5.584;2022-12-04T00:53:43;56.27;;;20.20;;
18724;SDS011;65581;52.130;5.584;2022-12-04T00:56:11;56.37;;;19.70;;
18724;SDS011;65581;52.130;5.584;2022-12-04T00:58:39;52.67;;;19.33;;
18724;SDS011;65581;52.130;5.584;2022-12-04T01:01:07;56.03;;;20.23;;
18724;SDS011;65581;52.130;5.584;2022-12-04T01:03:36;54.30;;;19.70;;
18724;SDS011;65581;52.130;5.584;2022-12-04T01:06:03;57.37;;;20.27;;
18724;SDS011;65581;52.130;5.584;2022-12-04T01:08:32;52.63;;;20.33;;
18724;SDS011;65581;52.130;5.584;2022-12-04T01:11:03;59.67;;;20.10;;
18724;SDS011;65581;52.130;5.584;2022-12-04T01:13:30;50.60;;;18.60;;
18724;SDS011;65581;52.130;5.584;2022-12-04T01:15:57;59.67;;;19.20;;
18724;SDS011;65581;52.130;5.584;2022-12-04T01:18:24;57.70;;;20.23;;
18724;SDS011;65581;52.130;5.584;2022-12-04T01:20:51;50.30;;;19.03;;
18724;SDS011;65581;52.130;5.584;2022-12-04T01:23:19;56.67;;;19.93;;
18724;SDS011;65581;52.130;5.584;2022-12-04T01:25:51;53.27;;;19.40;;
18724;SDS011;65581;52.130;5.584;2022-12-04T01:28:19;53.40;;;19.17;;
18724;SDS011;65581;52.130;5.584;2022-12-04T01:30:55;47.70;;;18.43;;
18724;SDS011;65581;52.130;5.584;2022-12-04T01:33:26;54.47;;;19.80;;
18724;SDS011;65581;52.130;5.584;2022-12-04T01:35:53;52.03;;;18.93;;
18724;SDS011;65581;52.130;5.584;2022-12-04T01:38:20;53.83;;;19.37;;
18724;SDS011;65581;52.130;5.584;2022-12-04T01:40:47;55.83;;;19.67;;
18724;SDS011;65581;52.130;5.584;2022-12-04T01:43:16;55.40;;;19.67;;
18724;SDS011;65581;52.130;5.584;2022-12-04T01:45:43;56.00;;;19.43;;
18724;SDS011;65581;52.130;5.584;2022-12-04T01:48:13;52.93;;;19.50;;
18724;SDS011;65581;52.130;5.584;2022-12-04T01:50:44;52.13;;;20.37;;
18724;SDS011;65581;52.130;5.584;2022-12-04T01:53:12;53.00;;;19.97;;
18724;SDS011;65581;52.130;5.584;2022-12-04T01:55:40;56.37;;;18.97;;
18724;SDS011;65581;52.130;5.584;2022-12-04T01:58:07;55.07;;;20.10;;
18724;SDS011;65581;52.130;5.584;2022-12-04T02:00:36;51.60;;;19.53;;
18724;SDS011;65581;52.130;5.584;2022-12-04T02:03:03;54.10;;;20.23;;
18724;SDS011;65581;52.130;5.584;2022-12-04T02:05:29;55.57;;;20.60;;
18724;SDS011;65581;52.130;5.584;2022-12-04T02:07:58;59.77;;;20.77;;
18724;SDS011;65581;52.130;5.584;2022-12-04T02:10:30;56.00;;;20.23;;
18724;SDS011;65581;52.130;5.584;2022-12-04T02:13:07;56.77;;;19.27;;
18724;SDS011;65581;52.130;5.584;2022-12-04T02:15:44;56.37;;;20.37;;
18724;SDS011;65581;52.130;5.584;2022-12-04T02:18:15;58.13;;;20.70;;
18724;SDS011;65581;52.130;5.584;2022-12-04T02:20:48;61.13;;;20.07;;
18724;SDS011;65581;52.130;5.584;2022-12-04T02:23:27;55.67;;;20.40;;
18724;SDS011;65581;52.130;5.584;2022-12-04T02:26:05;56.97;;;19.50;;
18724;SDS011;65581;52.130;5.584;2022-12-04T02:28:46;56.20;;;19.90;;
18724;SDS011;65581;52.130;5.584;2022-12-04T02:31:27;58.63;;;21.20;;
18724;SDS011;65581;52.130;5.584;2022-12-04T02:34:05;58.17;;;19.97;;
18724;SDS011;65581;52.130;5.584;2022-12-04T02:37:06;55.57;;;20.23;;
18724;SDS011;65581;52.130;5.584;2022-12-04T02:43:04;56.97;;;19.93;;
18724;SDS011;65581;52.130;5.584;2022-12-04T02:45:58;58.73;;;19.90;;
18724;SDS011;65581;52.130;5.584;2022-12-04T02:48:44;54.50;;;20.63;;
18724;SDS011;65581;52.130;5.584;2022-12-04T02:51:19;55.33;;;20.27;;
18724;SDS011;65581;52.130;5.584;2022-12-04T02:54:01;54.10;;;20.10;;
18724;SDS011;65581;52.130;5.584;2022-12-04T02:56:40;55.47;;;20.77;;
18724;SDS011;65581;52.130;5.584;2022-12-04T02:59:20;61.63;;;20.27;;
18724;SDS011;65581;52.130;5.584;2022-12-04T03:02:18;54.30;;;20.83;;
18724;SDS011;65581;52.130;5.584;2022-12-04T03:05:08;59.73;;;20.10;;
18724;SDS011;65581;52.130;5.584;2022-12-04T03:07:53;55.10;;;20.33;;
18724;SDS011;65581;52.130;5.584;2022-12-04T03:10:51;50.97;;;19.07;;
18724;SDS011;65581;52.130;5.584;2022-12-04T03:13:35;57.03;;;20.97;;
18724;SDS011;65581;52.130;5.584;2022-12-04T03:16:33;53.00;;;19.80;;
18724;SDS011;65581;52.130;5.584;2022-12-04T03:19:22;54.87;;;19.67;;
18724;SDS011;65581;52.130;5.584;2022-12-04T03:21:58;55.07;;;19.83;;
18724;SDS011;65581;52.130;5.584;2022-12-04T03:24:36;54.90;;;19.37;;
18724;SDS011;65581;52.130;5.584;2022-12-04T03:27:23;50.47;;;19.47;;
18724;SDS011;65581;52.130;5.584;2022-12-04T03:30:19;52.17;;;19.20;;
18724;SDS011;65581;52.130;5.584;2022-12-04T03:32:56;53.60;;;20.03;;
18724;SDS011;65581;52.130;5.584;2022-12-04T03:35:31;56.43;;;20.23;;
18724;SDS011;65581;52.130;5.584;2022-12-04T03:38:06;56.20;;;20.17;;
18724;SDS011;65581;52.130;5.584;2022-12-04T03:40:40;53.87;;;19.90;;
18724;SDS011;65581;52.130;5.584;2022-12-04T03:43:11;58.00;;;21.87;;
18724;SDS011;65581;52.130;5.584;2022-12-04T03:45:42;51.40;;;18.93;;
18724;SDS011;65581;52.130;5.584;2022-12-04T03:48:14;50.60;;;19.27;;
18724;SDS011;65581;52.130;5.584;2022-12-04T03:50:46;52.90;;;19.57;;
18724;SDS011;65581;52.130;5.584;2022-12-04T03:53:19;53.13;;;18.73;;
18724;SDS011;65581;52.130;5.584;2022-12-04T03:55:50;54.87;;;19.43;;
18724;SDS011;65581;52.130;5.584;2022-12-04T03:58:22;55.83;;;20.87;;
18724;SDS011;65581;52.130;5.584;2022-12-04T04:00:54;59.70;;;20.07;;
18724;SDS011;65581;52.130;5.584;2022-12-04T04:03:23;63.60;;;21.30;;
18724;SDS011;65581;52.130;5.584;2022-12-04T04:05:56;53.33;;;20.87;;
18724;SDS011;65581;52.130;5.584;2022-12-04T04:08:26;58.17;;;20.20;;
18724;SDS011;65581;52.130;5.584;2022-12-04T04:10:59;53.97;;;20.93;;
18724;SDS011;65581;52.130;5.584;2022-12-04T04:13:33;55.67;;;21.33;;
18724;SDS011;65581;52.130;5.584;2022-12-04T04:16:21;55.10;;;21.73;;
18724;SDS011;65581;52.130;5.584;2022-12-04T04:19:10;51.43;;;19.97;;
18724;SDS011;65581;52.130;5.584;2022-12-04T04:21:59;54.27;;;19.63;;
18724;SDS011;65581;52.130;5.584;2022-12-04T04:24:49;57.17;;;19.87;;
18724;SDS011;65581;52.130;5.584;2022-12-04T04:27:20;53.57;;;19.87;;
18724;SDS011;65581;52.130;5.584;2022-12-04T04:29:46;45.40;;;16.07;;
18724;SDS011;65581;52.130;5.584;2022-12-04T04:32:15;57.50;;;21.33;;
18724;SDS011;65581;52.130;5.584;2022-12-04T04:34:48;59.57;;;21.57;;
18724;SDS011;65581;52.130;5.584;2022-12-04T04:37:24;55.63;;;20.10;;
18724;SDS011;65581;52.130;5.584;2022-12-04T04:39:55;58.13;;;21.33;;
18724;SDS011;65581;52.130;5.584;2022-12-04T04:42:30;53.57;;;20.63;;
18724;SDS011;65581;52.130;5.584;2022-12-04T04:45:01;58.17;;;21.03;;
18724;SDS011;65581;52.130;5.584;2022-12-04T04:47:32;56.93;;;22.03;;
18724;SDS011;65581;52.130;5.584;2022-12-04T04:50:04;62.33;;;22.00;;
18724;SDS011;65581;52.130;5.584;2022-12-04T04:52:35;56.83;;;20.20;;
18724;SDS011;65581;52.130;5.584;2022-12-04T04:55:04;59.23;;;21.53;;
18724;SDS011;65581;52.130;5.584;2022-12-04T04:57:33;59.07;;;21.77;;
18724;SDS011;65581;52.130;5.584;2022-12-04T05:00:02;57.37;;;21.03;;
18724;SDS011;65581;52.130;5.584;2022-12-04T05:02:30;61.77;;;21.70;;
18724;SDS011;65581;52.130;5.584;2022-12-04T05:04:58;55.30;;;19.97;;
18724;SDS011;65581;52.130;5.584;2022-12-04T05:07:25;56.00;;;20.13;;
18724;SDS011;65581;52.130;5.584;2022-12-04T05:09:53;59.50;;;21.73;;
18724;SDS011;65581;52.130;5.584;2022-12-04T05:12:20;55.43;;;21.03;;
18724;SDS011;65581;52.130;5.584;2022-12-04T05:14:46;54.37;;;21.00;;
18724;SDS011;65581;52.130;5.584;2022-12-04T05:17:13;55.60;;;20.67;;
18724;SDS011;65581;52.130;5.584;2022-12-04T05:19:41;61.33;;;20.83;;
18724;SDS011;65581;52.130;5.584;2022-12-04T05:22:20;62.37;;;20.80;;
18724;SDS011;65581;52.130;5.584;2022-12-04T05:24:49;56.53;;;19.80;;
18724;SDS011;65581;52.130;5.584;2022-12-04T05:27:17;54.70;;;19.73;;
18724;SDS011;65581;52.130;5.584;2022-12-04T05:29:44;55.63;;;19.57;;
18724;SDS011;65581;52.130;5.584;2022-12-04T05:32:10;57.33;;;21.33;;
18724;SDS011;65581;52.130;5.584;2022-12-04T05:34:37;52.10;;;20.27;;
18724;SDS011;65581;52.130;5.584;2022-12-04T05:37:04;53.30;;;19.60;;
18724;SDS011;65581;52.130;5.584;2022-12-04T05:39:32;54.33;;;19.60;;
18724;SDS011;65581;52.130;5.584;2022-12-04T05:41:59;58.63;;;21.27;;
18724;SDS011;65581;52.130;5.584;2022-12-04T05:44:27;55.37;;;19.83;;
18724;SDS011;65581;52.130;5.584;2022-12-04T05:46:54;55.87;;;21.53;;
18724;SDS011;65581;52.130;5.584;2022-12-04T05:49:21;59.13;;;20.30;;
18724;SDS011;65581;52.130;5.584;2022-12-04T05:51:48;52.07;;;19.87;;
18724;SDS011;65581;52.130;5.584;2022-12-04T05:54:15;55.77;;;20.83;;
18724;SDS011;65581;52.130;5.584;2022-12-04T05:56:42;53.30;;;21.10;;
18724;SDS011;65581;52.130;5.584;2022-12-04T05:59:09;58.03;;;21.63;;
18724;SDS011;65581;52.130;5.584;2022-12-04T06:01:37;51.10;;;19.17;;
18724;SDS011;65581;52.130;5.584;2022-12-04T06:04:03;52.77;;;19.47;;
18724;SDS011;65581;52.130;5.584;2022-12-04T06:06:30;55.20;;;20.87;;
18724;SDS011;65581;52.130;5.584;2022-12-04T06:08:58;57.33;;;19.13;;
18724;SDS011;65581;52.130;5.584;2022-12-04T06:11:26;51.57;;;19.10;;
18724;SDS011;65581;52.130;5.584;2022-12-04T06:13:54;50.40;;;19.87;;
18724;SDS011;65581;52.130;5.584;2022-12-04T06:16:22;56.67;;;21.40;;
18724;SDS011;65581;52.130;5.584;2022-12-04T06:18:52;51.00;;;19.47;;
18724;SDS011;65581;52.130;5.584;2022-12-04T06:21:21;52.03;;;20.53;;
18724;SDS011;65581;52.130;5.584;2022-12-04T06:23:49;50.23;;;19.03;;
18724;SDS011;65581;52.130;5.584;2022-12-04T06:26:16;48.97;;;18.63;;
18724;SDS011;65581;52.130;5.584;2022-12-04T06:28:44;58.30;;;19.83;;
18724;SDS011;65581;52.130;5.584;2022-12-04T06:31:11;52.43;;;18.97;;
18724;SDS011;65581;52.130;5.584;2022-12-04T06:33:39;50.20;;;19.57;;
18724;SDS011;65581;52.130;5.584;2022-12-04T06:36:10;54.60;;;20.63;;
18724;SDS011;65581;52.130;5.584;2022-12-04T06:38:38;52.87;;;19.23;;
18724;SDS011;65581;52.130;5.584;2022-12-04T06:41:06;50.10;;;19.23;;
18724;SDS011;65581;52.130;5.584;2022-12-04T06:43:34;51.43;;;19.53;;
18724;SDS011;65581;52.130;5.584;2022-12-04T06:46:02;49.23;;;19.57;;
18724;SDS011;65581;52.130;5.584;2022-12-04T06:48:31;53.10;;;19.77;;
18724;SDS011;65581;52.130;5.584;2022-12-04T06:50:58;52.97;;;20.73;;
18724;SDS011;65581;52.130;5.584;2022-12-04T06:53:28;50.77;;;19.37;;
18724;SDS011;65581;52.130;5.584;2022-12-04T06:55:56;56.30;;;20.27;;
18724;SDS011;65581;52.130;5.584;2022-12-04T06:58:24;55.00;;;19.20;;
18724;SDS011;65581;52.130;5.584;2022-12-04T07:00:51;51.63;;;19.57;;
18724;SDS011;65581;52.130;5.584;2022-12-04T07:03:18;52.60;;;19.23;;
18724;SDS011;65581;52.130;5.584;2022-12-04T07:05:46;56.87;;;19.60;;
18724;SDS011;65581;52.130;5.584;2022-12-04T07:08:13;53.07;;;20.13;;
18724;SDS011;65581;52.130;5.584;2022-12-04T07:10:42;57.73;;;19.93;;
18724;SDS011;65581;52.130;5.584;2022-12-04T07:13:09;58.17;;;19.53;;
18724;SDS011;65581;52.130;5.584;2022-12-04T07:15:36;56.50;;;20.37;;
18724;SDS011;65581;52.130;5.584;2022-12-04T07:18:03;54.33;;;17.93;;
18724;SDS011;65581;52.130;5.584;2022-12-04T07:20:30;49.50;;;20.13;;
18724;SDS011;65581;52.130;5.584;2022-12-04T07:22:57;52.63;;;19.27;;
18724;SDS011;65581;52.130;5.584;2022-12-04T07:25:24;53.17;;;20.27;;
18724;SDS011;65581;52.130;5.584;2022-12-04T07:27:54;55.77;;;20.43;;
18724;SDS011;65581;52.130;5.584;2022-12-04T07:30:21;57.00;;;20.27;;
18724;SDS011;65581;52.130;5.584;2022-12-04T07:32:48;51.13;;;19.27;;
18724;SDS011;65581;52.130;5.584;2022-12-04T07:35:15;54.17;;;20.10;;
18724;SDS011;65581;52.130;5.584;2022-12-04T07:37:42;60.73;;;20.50;;
18724;SDS011;65581;52.130;5.584;2022-12-04T07:40:09;61.23;;;20.50;;
18724;SDS011;65581;52.130;5.584;2022-12-04T07:42:36;49.97;;;19.70;;
18724;SDS011;65581;52.130;5.584;2022-12-04T07:45:05;54.53;;;19.93;;
18724;SDS011;65581;52.130;5.584;2022-12-04T07:47:33;53.33;;;19.50;;
18724;SDS011;65581;52.130;5.584;2022-12-04T07:50:00;59.60;;;20.07;;
18724;SDS011;65581;52.130;5.584;2022-12-04T07:52:27;55.67;;;19.77;;
18724;SDS011;65581;52.130;5.584;2022-12-04T07:54:54;56.27;;;20.53;;
18724;SDS011;65581;52.130;5.584;2022-12-04T07:57:20;55.53;;;19.80;;
18724;SDS011;65581;52.130;5.584;2022-12-04T07:59:47;54.87;;;20.57;;
18724;SDS011;65581;52.130;5.584;2022-12-04T08:02:15;55.17;;;19.00;;
18724;SDS011;65581;52.130;5.584;2022-12-04T08:04:42;55.43;;;20.50;;
18724;SDS011;65581;52.130;5.584;2022-12-04T08:07:09;54.70;;;19.47;;
18724;SDS011;65581;52.130;5.584;2022-12-04T08:09:36;61.30;;;23.92;;
18724;SDS011;65581;52.130;5.584;2022-12-04T08:12:03;57.67;;;20.97;;
18724;SDS011;65581;52.130;5.584;2022-12-04T08:14:30;57.27;;;20.13;;
18724;SDS011;65581;52.130;5.584;2022-12-04T08:16:57;55.90;;;20.93;;
18724;SDS011;65581;52.130;5.584;2022-12-04T08:19:25;53.77;;;19.47;;
18724;SDS011;65581;52.130;5.584;2022-12-04T08:21:52;50.77;;;19.07;;
18724;SDS011;65581;52.130;5.584;2022-12-04T08:24:19;55.97;;;19.57;;
18724;SDS011;65581;52.130;5.584;2022-12-04T08:26:46;51.00;;;19.63;;
18724;SDS011;65581;52.130;5.584;2022-12-04T08:29:13;51.17;;;19.60;;
18724;SDS011;65581;52.130;5.584;2022-12-04T08:31:40;54.70;;;19.10;;
18724;SDS011;65581;52.130;5.584;2022-12-04T08:34:07;63.03;;;19.83;;
18724;SDS011;65581;52.130;5.584;2022-12-04T08:36:35;52.53;;;19.03;;
18724;SDS011;65581;52.130;5.584;2022-12-04T08:39:02;55.97;;;20.23;;
18724;SDS011;65581;52.130;5.584;2022-12-04T08:41:29;53.10;;;18.93;;
18724;SDS011;65581;52.130;5.584;2022-12-04T08:43:55;52.50;;;19.03;;
18724;SDS011;65581;52.130;5.584;2022-12-04T08:46:24;51.87;;;19.13;;
18724;SDS011;65581;52.130;5.584;2022-12-04T08:48:52;53.77;;;19.80;;
18724;SDS011;65581;52.130;5.584;2022-12-04T08:51:20;51.20;;;18.57;;
18724;SDS011;65581;52.130;5.584;2022-12-04T08:53:52;54.67;;;18.93;;
18724;SDS011;65581;52.130;5.584;2022-12-04T08:56:20;58.17;;;19.53;;
18724;SDS011;65581;52.130;5.584;2022-12-04T08:58:47;52.93;;;18.93;;
18724;SDS011;65581;52.130;5.584;2022-12-04T09:01:14;54.83;;;18.63;;
18724;SDS011;65581;52.130;5.584;2022-12-04T09:03:41;55.13;;;19.80;;
18724;SDS011;65581;52.130;5.584;2022-12-04T09:06:09;52.97;;;18.93;;
18724;SDS011;65581;52.130;5.584;2022-12-04T09:08:37;50.50;;;18.80;;
18724;SDS011;65581;52.130;5.584;2022-12-04T09:11:07;52.80;;;19.43;;
18724;SDS011;65581;52.130;5.584;2022-12-04T09:13:35;49.50;;;18.87;;
18724;SDS011;65581;52.130;5.584;2022-12-04T09:16:03;56.83;;;19.07;;
18724;SDS011;65581;52.130;5.584;2022-12-04T09:18:32;57.43;;;19.70;;
18724;SDS011;65581;52.130;5.584;2022-12-04T09:21:00;52.93;;;18.67;;
18724;SDS011;65581;52.130;5.584;2022-12-04T09:23:29;50.97;;;17.63;;
18724;SDS011;65581;52.130;5.584;2022-12-04T09:25:56;54.20;;;18.60;;
18724;SDS011;65581;52.130;5.584;2022-12-04T09:28:24;45.40;;;17.27;;
18724;SDS011;65581;52.130;5.584;2022-12-04T09:30:57;50.07;;;18.33;;
18724;SDS011;65581;52.130;5.584;2022-12-04T09:33:24;51.40;;;18.10;;
18724;SDS011;65581;52.130;5.584;2022-12-04T09:35:51;51.67;;;17.83;;
18724;SDS011;65581;52.130;5.584;2022-12-04T09:38:18;53.40;;;18.43;;
18724;SDS011;65581;52.130;5.584;2022-12-04T09:40:47;52.17;;;18.27;;
18724;SDS011;65581;52.130;5.584;2022-12-04T09:43:22;48.87;;;18.40;;
18724;SDS011;65581;52.130;5.584;2022-12-04T09:45:57;49.60;;;18.20;;
18724;SDS011;65581;52.130;5.584;2022-12-04T09:48:33;47.17;;;16.73;;
18724;SDS011;65581;52.130;5.584;2022-12-04T09:51:03;46.17;;;17.03;;
18724;SDS011;65581;52.130;5.584;2022-12-04T09:53:35;39.93;;;15.20;;
18724;SDS011;65581;52.130;5.584;2022-12-04T09:56:10;46.73;;;16.57;;
18724;SDS011;65581;52.130;5.584;2022-12-04T09:58:44;44.90;;;16.30;;
18724;SDS011;65581;52.130;5.584;2022-12-04T10:01:16;45.87;;;15.80;;
18724;SDS011;65581;52.130;5.584;2022-12-04T10:03:48;43.40;;;16.57;;
18724;SDS011;65581;52.130;5.584;2022-12-04T10:06:15;48.10;;;14.67;;
18724;SDS011;65581;52.130;5.584;2022-12-04T10:08:48;44.93;;;15.53;;
18724;SDS011;65581;52.130;5.584;2022-12-04T10:11:21;33.80;;;14.07;;
18724;SDS011;65581;52.130;5.584;2022-12-04T10:14:01;41.20;;;14.43;;
18724;SDS011;65581;52.130;5.584;2022-12-04T10:16:52;37.07;;;13.17;;
18724;SDS011;65581;52.130;5.584;2022-12-04T10:19:39;37.77;;;14.00;;
18724;SDS011;65581;52.130;5.584;2022-12-04T10:22:12;36.43;;;13.20;;
18724;SDS011;65581;52.130;5.584;2022-12-04T10:24:44;33.80;;;13.00;;
18724;SDS011;65581;52.130;5.584;2022-12-04T10:27:18;34.77;;;12.77;;
18724;SDS011;65581;52.130;5.584;2022-12-04T10:29:51;38.37;;;14.27;;
18724;SDS011;65581;52.130;5.584;2022-12-04T10:32:22;36.20;;;13.17;;
18724;SDS011;65581;52.130;5.584;2022-12-04T10:34:52;38.23;;;13.20;;
18724;SDS011;65581;52.130;5.584;2022-12-04T10:37:21;38.13;;;13.23;;
18724;SDS011;65581;52.130;5.584;2022-12-04T10:39:49;31.33;;;12.37;;
18724;SDS011;65581;52.130;5.584;2022-12-04T10:42:24;31.83;;;12.07;;
18724;SDS011;65581;52.130;5.584;2022-12-04T10:44:57;35.20;;;12.07;;
18724;SDS011;65581;52.130;5.584;2022-12-04T10:47:24;30.90;;;12.23;;
18724;SDS011;65581;52.130;5.584;2022-12-04T10:49:54;30.80;;;11.27;;
18724;SDS011;65581;52.130;5.584;2022-12-04T10:52:24;29.97;;;11.30;;
18724;SDS011;65581;52.130;5.584;2022-12-04T10:54:52;30.23;;;11.70;;
18724;SDS011;65581;52.130;5.584;2022-12-04T10:57:32;27.57;;;11.30;;
18724;SDS011;65581;52.130;5.584;2022-12-04T11:00:03;29.20;;;10.77;;
18724;SDS011;65581;52.130;5.584;2022-12-04T11:02:49;29.13;;;11.00;;
18724;SDS011;65581;52.130;5.584;2022-12-04T11:05:24;27.40;;;11.30;;
18724;SDS011;65581;52.130;5.584;2022-12-04T11:07:53;29.17;;;11.40;;
18724;SDS011;65581;52.130;5.584;2022-12-04T11:10:23;26.50;;;10.90;;
18724;SDS011;65581;52.130;5.584;2022-12-04T11:12:56;29.30;;;11.23;;
18724;SDS011;65581;52.130;5.584;2022-12-04T11:15:26;27.43;;;11.27;;
18724;SDS011;65581;52.130;5.584;2022-12-04T11:17:54;25.83;;;11.40;;
18724;SDS011;65581;52.130;5.584;2022-12-04T11:20:21;29.30;;;11.67;;
18724;SDS011;65581;52.130;5.584;2022-12-04T11:22:49;26.20;;;10.37;;
18724;SDS011;65581;52.130;5.584;2022-12-04T11:25:18;26.73;;;10.90;;
18724;SDS011;65581;52.130;5.584;2022-12-04T11:27:47;25.47;;;10.73;;
18724;SDS011;65581;52.130;5.584;2022-12-04T11:30:18;23.93;;;10.17;;
18724;SDS011;65581;52.130;5.584;2022-12-04T11:32:48;25.07;;;10.30;;
18724;SDS011;65581;52.130;5.584;2022-12-04T11:35:16;23.97;;;9.47;;
18724;SDS011;65581;52.130;5.584;2022-12-04T11:37:50;24.40;;;9.90;;
18724;SDS011;65581;52.130;5.584;2022-12-04T11:40:20;24.23;;;10.07;;
18724;SDS011;65581;52.130;5.584;2022-12-04T11:42:56;23.27;;;9.43;;
18724;SDS011;65581;52.130;5.584;2022-12-04T11:45:26;21.60;;;9.63;;
18724;SDS011;65581;52.130;5.584;2022-12-04T11:47:55;21.17;;;9.40;;
18724;SDS011;65581;52.130;5.584;2022-12-04T11:50:29;21.00;;;9.27;;
18724;SDS011;65581;52.130;5.584;2022-12-04T11:53:04;26.60;;;10.27;;
18724;SDS011;65581;52.130;5.584;2022-12-04T11:55:40;24.17;;;9.57;;
18724;SDS011;65581;52.130;5.584;2022-12-04T12:01:14;23.90;;;9.40;;
18724;SDS011;65581;52.130;5.584;2022-12-04T12:03:55;21.97;;;9.20;;
18724;SDS011;65581;52.130;5.584;2022-12-04T12:06:32;20.67;;;9.13;;
18724;SDS011;65581;52.130;5.584;2022-12-04T12:11:48;26.07;;;9.20;;
18724;SDS011;65581;52.130;5.584;2022-12-04T12:14:23;22.03;;;9.33;;
18724;SDS011;65581;52.130;5.584;2022-12-04T12:16:57;21.53;;;9.13;;
18724;SDS011;65581;52.130;5.584;2022-12-04T12:22:35;20.73;;;9.23;;
18724;SDS011;65581;52.130;5.584;2022-12-04T12:25:13;20.50;;;8.80;;
18724;SDS011;65581;52.130;5.584;2022-12-04T12:27:49;21.63;;;9.00;;
18724;SDS011;65581;52.130;5.584;2022-12-04T12:30:27;20.80;;;9.30;;
18724;SDS011;65581;52.130;5.584;2022-12-04T12:33:03;20.23;;;8.93;;
18724;SDS011;65581;52.130;5.584;2022-12-04T12:35:40;22.17;;;9.10;;
18724;SDS011;65581;52.130;5.584;2022-12-04T12:38:15;19.07;;;8.57;;
18724;SDS011;65581;52.130;5.584;2022-12-04T12:40:47;22.90;;;9.47;;
18724;SDS011;65581;52.130;5.584;2022-12-04T12:43:20;22.47;;;8.67;;
18724;SDS011;65581;52.130;5.584;2022-12-04T12:45:50;21.20;;;9.43;;
18724;SDS011;65581;52.130;5.584;2022-12-04T12:48:22;23.27;;;9.13;;
18724;SDS011;65581;52.130;5.584;2022-12-04T12:50:56;17.97;;;8.20;;
18724;SDS011;65581;52.130;5.584;2022-12-04T12:53:28;20.77;;;9.03;;
18724;SDS011;65581;52.130;5.584;2022-12-04T12:56:01;18.90;;;8.60;;
18724;SDS011;65581;52.130;5.584;2022-12-04T12:58:32;20.30;;;8.80;;
18724;SDS011;65581;52.130;5.584;2022-12-04T13:01:04;21.00;;;8.87;;
18724;SDS011;65581;52.130;5.584;2022-12-04T13:03:38;22.40;;;9.40;;
18724;SDS011;65581;52.130;5.584;2022-12-04T13:06:14;18.27;;;8.60;;
18724;SDS011;65581;52.130;5.584;2022-12-04T13:08:47;20.73;;;9.00;;
18724;SDS011;65581;52.130;5.584;2022-12-04T13:11:22;26.17;;;10.03;;
18724;SDS011;65581;52.130;5.584;2022-12-04T13:13:53;22.60;;;10.00;;
18724;SDS011;65581;52.130;5.584;2022-12-04T13:16:23;21.40;;;9.43;;
18724;SDS011;65581;52.130;5.584;2022-12-04T13:18:54;24.17;;;10.43;;
18724;SDS011;65581;52.130;5.584;2022-12-04T13:21:33;29.87;;;14.17;;
18724;SDS011;65581;52.130;5.584;2022-12-04T13:27:05;22.70;;;9.93;;
18724;SDS011;65581;52.130;5.584;2022-12-04T13:29:44;23.67;;;10.37;;
18724;SDS011;65581;52.130;5.584;2022-12-04T13:32:32;22.53;;;10.00;;
18724;SDS011;65581;52.130;5.584;2022-12-04T13:35:21;24.60;;;10.57;;
18724;SDS011;65581;52.130;5.584;2022-12-04T13:38:01;24.67;;;11.13;;
18724;SDS011;65581;52.130;5.584;2022-12-04T13:40:38;25.88;;;12.88;;
18724;SDS011;65581;52.130;5.584;2022-12-04T13:43:13;27.03;;;11.70;;
18724;SDS011;65581;52.130;5.584;2022-12-04T13:45:46;31.03;;;12.53;;
18724;SDS011;65581;52.130;5.584;2022-12-04T13:48:24;29.37;;;11.73;;
18724;SDS011;65581;52.130;5.584;2022-12-04T13:50:59;30.77;;;12.90;;
18724;SDS011;65581;52.130;5.584;2022-12-04T13:53:34;25.50;;;10.90;;
18724;SDS011;65581;52.130;5.584;2022-12-04T13:56:04;26.23;;;11.37;;
18724;SDS011;65581;52.130;5.584;2022-12-04T13:58:33;25.47;;;11.53;;
18724;SDS011;65581;52.130;5.584;2022-12-04T14:01:02;26.00;;;11.53;;
18724;SDS011;65581;52.130;5.584;2022-12-04T14:03:31;26.30;;;10.73;;
18724;SDS011;65581;52.130;5.584;2022-12-04T14:06:00;31.47;;;12.90;;
18724;SDS011;65581;52.130;5.584;2022-12-04T14:08:34;25.37;;;11.80;;
18724;SDS011;65581;52.130;5.584;2022-12-04T14:11:05;28.47;;;12.80;;
18724;SDS011;65581;52.130;5.584;2022-12-04T14:13:41;30.97;;;13.97;;
18724;SDS011;65581;52.130;5.584;2022-12-04T14:16:17;33.33;;;13.43;;
18724;SDS011;65581;52.130;5.584;2022-12-04T14:18:46;29.77;;;11.80;;
18724;SDS011;65581;52.130;5.584;2022-12-04T14:21:15;34.47;;;13.37;;
18724;SDS011;65581;52.130;5.584;2022-12-04T14:23:44;33.67;;;13.10;;
18724;SDS011;65581;52.130;5.584;2022-12-04T14:26:21;33.00;;;12.90;;
18724;SDS011;65581;52.130;5.584;2022-12-04T14:29:03;32.73;;;12.30;;
18724;SDS011;65581;52.130;5.584;2022-12-04T14:31:34;34.57;;;13.50;;
18724;SDS011;65581;52.130;5.584;2022-12-04T14:34:10;39.40;;;15.20;;
18724;SDS011;65581;52.130;5.584;2022-12-04T14:36:46;36.27;;;13.20;;
18724;SDS011;65581;52.130;5.584;2022-12-04T14:39:19;36.00;;;14.00;;
18724;SDS011;65581;52.130;5.584;2022-12-04T14:41:51;33.10;;;13.60;;
18724;SDS011;65581;52.130;5.584;2022-12-04T14:44:22;32.80;;;13.57;;
18724;SDS011;65581;52.130;5.584;2022-12-04T14:46:54;39.70;;;16.53;;
18724;SDS011;65581;52.130;5.584;2022-12-04T14:49:27;39.23;;;15.60;;
18724;SDS011;65581;52.130;5.584;2022-12-04T14:52:06;46.70;;;16.43;;
18724;SDS011;65581;52.130;5.584;2022-12-04T14:54:40;40.07;;;15.07;;
18724;SDS011;65581;52.130;5.584;2022-12-04T14:57:20;42.70;;;16.27;;
18724;SDS011;65581;52.130;5.584;2022-12-04T14:59:57;40.37;;;16.13;;
18724;SDS011;65581;52.130;5.584;2022-12-04T15:02:26;42.40;;;15.90;;
18724;SDS011;65581;52.130;5.584;2022-12-04T15:04:58;42.20;;;16.47;;